createdAt,value
2018-12-04T00:01:44.073Z,82.35
2018-12-04T00:04:21.478Z,82.70
2018-12-04T00:07:00.069Z,82.48
2018-12-04T00:09:38.479Z,82.47
2018-12-04T00:12:14.933Z,82.81
2018-12-04T00:14:52.608Z,82.84
2018-12-04T00:17:29.483Z,82.73
2018-12-04T00:20:06.050Z,82.74
2018-12-04T00:22:44.159Z,82.62
2018-12-04T00:25:21.921Z,82.62
2018-12-04T00:27:58.886Z,82.48
2018-12-04T00:54:01.950Z,83.07
2018-12-04T00:56:39.547Z,82.75
2018-12-04T00:59:17.150Z,82.82
2018-12-04T01:01:55.251Z,82.96
2018-12-04T01:04:34.631Z,83.28
2018-12-04T01:07:12.196Z,83.04
2018-12-04T01:09:46.429Z,83.37
2018-12-04T01:12:24.099Z,83.23
2018-12-04T01:15:03.474Z,83.56
2018-12-04T01:17:41.670Z,83.23
2018-12-04T01:20:18.847Z,82.99
2018-12-04T01:22:57.335Z,83.43
2018-12-04T01:25:29.389Z,83.34
2018-12-04T01:27:58.721Z,83.36
2018-12-04T01:30:28.053Z,83.58
2018-12-04T01:32:57.410Z,83.06
2018-12-04T01:35:26.775Z,83.43
2018-12-04T01:37:56.105Z,83.45
2018-12-04T01:40:25.446Z,83.75
2018-12-04T01:45:37.757Z,83.31
2018-12-04T01:48:07.141Z,83.53
2018-12-04T01:50:36.631Z,83.91
2018-12-04T01:53:06.360Z,83.64
2018-12-04T01:55:35.705Z,83.64
2018-12-04T01:58:05.990Z,83.51
2018-12-04T02:00:35.357Z,83.74
2018-12-04T02:03:05.929Z,83.92
2018-12-04T02:05:35.391Z,83.73
2018-12-04T02:08:06.277Z,83.70
2018-12-04T02:10:35.609Z,83.45
2018-12-04T02:13:06.190Z,83.62
2018-12-04T02:15:35.801Z,83.78
2018-12-04T02:18:06.465Z,83.77
2018-12-04T02:20:39.830Z,83.95
2018-12-04T02:23:09.153Z,83.90
2018-12-04T02:25:38.551Z,83.49
2018-12-04T02:28:07.900Z,83.91
2018-12-04T02:30:37.320Z,83.95
2018-12-04T02:33:06.676Z,83.46
2018-12-04T02:35:36.051Z,83.70
2018-12-04T02:38:06.417Z,83.80
2018-12-04T02:40:41.756Z,83.16
2018-12-04T02:43:11.185Z,83.22
2018-12-04T02:45:40.605Z,83.48
2018-12-04T02:48:09.949Z,83.42
2018-12-04T02:50:39.323Z,83.44
2018-12-04T02:53:08.788Z,83.47
2018-12-04T02:55:38.251Z,83.35
2018-12-04T02:58:07.629Z,83.52
2018-12-04T03:00:36.949Z,83.25
2018-12-04T03:03:06.504Z,83.07
2018-12-04T03:05:35.863Z,83.49
2018-12-04T03:08:06.445Z,82.98
2018-12-04T03:10:35.978Z,83.40
2018-12-04T03:13:06.017Z,83.49
2018-12-04T03:15:35.389Z,83.19
2018-12-04T03:18:04.804Z,83.14
2018-12-04T03:20:40.806Z,83.37
2018-12-04T03:23:10.266Z,83.32
2018-12-04T03:25:39.643Z,83.09
2018-12-04T03:28:08.964Z,83.60
2018-12-04T03:30:38.317Z,83.27
2018-12-04T03:33:07.667Z,83.29
2018-12-04T03:38:21.732Z,83.36
2018-12-04T03:40:51.073Z,83.38
2018-12-04T03:43:20.722Z,83.27
2018-12-04T03:45:50.095Z,83.04
2018-12-04T03:48:19.644Z,83.73
2018-12-04T03:50:48.971Z,83.27
2018-12-04T03:56:00.165Z,83.31
2018-12-04T03:58:29.532Z,83.63
2018-12-04T04:00:59.010Z,83.31
2018-12-04T04:03:28.383Z,83.36
2018-12-04T04:05:57.839Z,83.65
2018-12-04T04:11:07.158Z,83.79
2018-12-04T04:13:36.472Z,83.68
2018-12-04T04:16:06.458Z,83.64
2018-12-04T04:18:35.799Z,83.53
2018-12-04T04:21:06.554Z,83.27
2018-12-04T04:23:35.933Z,83.17
2018-12-04T04:26:05.914Z,83.62
2018-12-04T04:31:15.726Z,83.77
2018-12-04T04:33:45.105Z,83.63
2018-12-04T04:36:14.562Z,83.90
2018-12-04T04:38:43.903Z,83.37
2018-12-04T04:41:13.251Z,83.89
2018-12-04T04:43:42.622Z,83.67
2018-12-04T04:46:12.038Z,83.64
2018-12-04T04:48:46.021Z,83.84
2018-12-04T04:51:15.449Z,83.61
2018-12-04T04:53:44.977Z,83.36
2018-12-04T04:56:14.326Z,83.49
2018-12-04T04:58:43.676Z,83.99
2018-12-04T05:01:13.030Z,83.44
2018-12-04T05:03:42.375Z,83.40
2018-12-04T05:06:11.832Z,83.66
2018-12-04T05:08:41.178Z,83.38
2018-12-04T05:11:10.579Z,83.43
2018-12-04T05:13:39.952Z,83.49
2018-12-04T05:16:09.290Z,83.61
2018-12-04T05:18:38.633Z,83.97
2018-12-04T05:21:08.967Z,83.36
2018-12-04T05:23:38.542Z,83.20
2018-12-04T05:26:07.885Z,83.44
2018-12-04T05:28:37.216Z,83.62
2018-12-04T05:31:06.719Z,83.18
2018-12-04T05:33:36.210Z,83.67
2018-12-04T05:36:06.307Z,83.77
2018-12-04T05:38:35.640Z,83.19
2018-12-04T05:41:06.206Z,83.53
2018-12-04T05:43:35.555Z,83.88
2018-12-04T05:46:05.990Z,83.62
2018-12-04T05:48:35.405Z,83.25
2018-12-04T05:51:04.789Z,83.05
2018-12-04T05:53:36.702Z,83.00
2018-12-04T05:56:10.470Z,83.18
2018-12-04T05:58:39.872Z,83.60
2018-12-04T06:01:09.231Z,83.24
2018-12-04T06:03:38.618Z,83.38
2018-12-04T06:06:07.970Z,83.38
2018-12-04T06:08:37.376Z,83.09
2018-12-04T06:11:06.827Z,82.88
2018-12-04T06:13:36.229Z,82.80
2018-12-04T06:16:06.215Z,82.55
2018-12-04T06:18:35.581Z,82.29
2018-12-04T06:21:06.187Z,82.37
2018-12-04T06:23:35.753Z,82.05
2018-12-04T06:26:06.427Z,81.96
2018-12-04T06:28:35.840Z,81.97
2018-12-04T06:31:06.081Z,82.20
2018-12-04T06:33:35.527Z,81.98
2018-12-04T06:36:06.230Z,81.66
2018-12-04T06:38:36.108Z,81.29
2018-12-04T06:41:06.825Z,81.32
2018-12-04T06:43:36.163Z,81.51
2018-12-04T06:46:06.228Z,81.55
2018-12-04T06:51:16.232Z,81.19
2018-12-04T06:53:45.730Z,81.42
2018-12-04T06:56:15.044Z,81.42
2018-12-04T06:58:44.396Z,81.40
2018-12-04T07:01:13.836Z,81.35
2018-12-04T07:03:43.253Z,81.27
2018-12-04T07:06:12.585Z,81.66
2018-12-04T07:08:42.088Z,81.96
2018-12-04T07:11:11.436Z,82.04
2018-12-04T07:16:21.508Z,81.93
2018-12-04T07:18:50.904Z,81.74
2018-12-04T07:21:20.323Z,82.18
2018-12-04T07:23:49.697Z,82.24
2018-12-04T07:26:19.056Z,82.20
2018-12-04T07:28:48.428Z,82.07
2018-12-04T07:31:17.760Z,81.91
2018-12-04T07:33:47.216Z,82.58
2018-12-04T07:36:16.564Z,82.37
2018-12-04T07:38:45.933Z,82.37
2018-12-04T07:41:15.309Z,82.49
2018-12-04T07:43:44.717Z,82.17
2018-12-04T07:46:14.071Z,81.39
2018-12-04T07:48:43.406Z,81.55
2018-12-04T07:51:12.757Z,81.39
2018-12-04T07:53:42.129Z,82.01
2018-12-04T07:56:11.601Z,82.10
2018-12-04T07:58:41.033Z,82.05
2018-12-04T08:01:10.360Z,82.29
2018-12-04T08:03:39.714Z,82.33
2018-12-04T08:06:11.635Z,82.15
2018-12-04T08:08:40.993Z,82.44
2018-12-04T08:11:10.308Z,82.30
2018-12-04T08:13:39.625Z,82.27
2018-12-04T08:16:08.971Z,82.84
2018-12-04T08:18:38.311Z,82.86
2018-12-04T08:21:07.662Z,82.64
2018-12-04T08:23:36.985Z,82.88
2018-12-04T08:26:06.321Z,82.76
2018-12-04T08:28:35.651Z,82.81
2018-12-04T08:31:06.242Z,82.76
2018-12-04T08:33:35.617Z,83.01
2018-12-04T08:36:06.112Z,82.67
2018-12-04T08:38:35.485Z,83.12
2018-12-04T08:41:06.087Z,82.67
2018-12-04T08:43:35.425Z,83.07
2018-12-04T08:46:05.985Z,83.25
2018-12-04T08:48:35.469Z,83.22
2018-12-04T08:51:06.129Z,82.79
2018-12-04T08:53:35.471Z,82.96
2018-12-04T08:56:04.889Z,83.19
2018-12-04T08:58:34.218Z,83.24
2018-12-04T09:01:03.545Z,83.43
2018-12-04T09:03:32.874Z,83.18
2018-12-04T09:06:02.216Z,83.14
2018-12-04T09:08:31.571Z,83.39
2018-12-04T09:11:00.922Z,83.45
2018-12-04T09:13:30.433Z,82.93
2018-12-04T09:15:59.890Z,83.43
2018-12-04T09:18:29.242Z,82.90
2018-12-04T09:20:58.710Z,83.12
2018-12-04T09:23:28.169Z,83.25
2018-12-04T09:25:57.552Z,82.75
2018-12-04T09:28:27.113Z,82.63
2018-12-04T09:30:56.615Z,82.82
2018-12-04T09:33:25.928Z,82.90
2018-12-04T09:35:55.239Z,82.78
2018-12-04T09:38:24.753Z,82.50
2018-12-04T09:40:54.094Z,82.91
2018-12-04T09:43:23.482Z,82.82
2018-12-04T09:45:52.868Z,82.69
2018-12-04T09:48:22.238Z,82.61
2018-12-04T09:50:51.600Z,82.85
2018-12-04T09:53:25.191Z,82.40
2018-12-04T09:58:36.923Z,82.44
2018-12-04T10:01:06.477Z,82.09
2018-12-04T10:03:35.828Z,82.41
2018-12-04T10:06:06.392Z,81.95
2018-12-04T10:08:35.716Z,81.99
2018-12-04T10:11:06.308Z,82.18
2018-12-04T10:13:35.646Z,82.15
2018-12-04T10:16:06.425Z,81.79
2018-12-04T10:18:35.785Z,82.35
2018-12-04T10:21:06.201Z,81.94
2018-12-04T10:23:35.542Z,82.15
2018-12-04T10:26:04.968Z,82.03
2018-12-04T10:28:34.304Z,81.74
2018-12-04T10:31:10.152Z,81.79
2018-12-04T10:33:39.704Z,81.65
2018-12-04T10:36:09.128Z,81.55
2018-12-04T10:38:38.468Z,81.75
2018-12-04T10:41:07.768Z,81.42
2018-12-04T10:43:37.111Z,81.14
2018-12-04T10:46:06.539Z,81.18
2018-12-04T10:48:35.962Z,80.98
2018-12-04T10:51:06.105Z,81.16
2018-12-04T10:53:35.441Z,80.77
2018-12-04T10:56:06.108Z,80.80
2018-12-04T10:58:35.463Z,80.77
2018-12-04T11:01:10.419Z,80.80
2018-12-04T11:03:40.035Z,80.67
2018-12-04T11:06:09.758Z,80.84
2018-12-04T11:08:39.547Z,80.89
2018-12-04T11:11:09.185Z,80.59
2018-12-04T11:13:38.853Z,80.58
2018-12-04T11:16:10.467Z,80.42
2018-12-04T11:18:39.854Z,80.17
2018-12-04T11:21:09.215Z,80.33
2018-12-04T11:23:38.563Z,80.08
2018-12-04T11:26:07.914Z,79.92
2018-12-04T11:28:37.323Z,79.96
2018-12-04T11:31:06.745Z,80.00
2018-12-04T11:33:36.201Z,79.67
2018-12-04T11:36:06.201Z,79.45
2018-12-04T11:38:35.565Z,79.51
2018-12-04T11:41:06.165Z,79.39
2018-12-04T11:43:35.509Z,79.09
2018-12-04T11:46:06.115Z,78.77
2018-12-04T11:48:35.580Z,78.75
2018-12-04T11:51:06.136Z,78.72
2018-12-04T11:56:16.909Z,78.31
2018-12-04T11:58:46.906Z,77.77
2018-12-04T12:01:24.311Z,77.94
2018-12-04T12:03:53.633Z,77.62
2018-12-04T12:06:23.112Z,77.50
2018-12-04T12:08:52.706Z,77.06
2018-12-04T12:11:24.144Z,77.19
2018-12-04T12:13:53.569Z,76.86
2018-12-04T12:16:23.147Z,76.64
2018-12-04T12:18:52.584Z,76.56
2018-12-04T12:21:25.117Z,76.49
2018-12-04T12:23:54.464Z,76.66
2018-12-04T12:26:23.830Z,76.03
2018-12-04T12:28:53.217Z,75.93
2018-12-04T12:31:22.661Z,75.73
2018-12-04T12:33:52.065Z,75.50
2018-12-04T12:36:21.511Z,75.76
2018-12-04T12:38:50.833Z,75.80
2018-12-04T12:41:21.403Z,75.33
2018-12-04T12:43:50.933Z,75.41
2018-12-04T12:46:20.358Z,75.26
2018-12-04T12:48:49.820Z,75.17
2018-12-04T12:51:19.217Z,74.79
2018-12-04T12:53:49.368Z,74.57
2018-12-04T12:56:18.802Z,74.99
2018-12-04T12:58:48.199Z,74.86
2018-12-04T13:01:21.930Z,73.50
2018-12-04T13:03:51.330Z,72.78
2018-12-04T13:06:20.741Z,72.52
2018-12-04T13:08:50.103Z,71.50
2018-12-04T13:11:20.749Z,70.74
2018-12-04T13:13:50.122Z,69.89
2018-12-04T13:16:19.630Z,69.80
2018-12-04T13:18:49.024Z,69.02
2018-12-04T13:21:19.271Z,68.76
2018-12-04T13:23:48.703Z,69.28
2018-12-04T13:26:18.061Z,69.43
2018-12-04T13:28:47.444Z,69.97
2018-12-04T13:31:16.841Z,69.77
2018-12-04T13:33:46.948Z,69.70
2018-12-04T13:36:16.250Z,69.74
2018-12-04T13:38:45.637Z,69.84
2018-12-04T13:41:15.001Z,69.82
2018-12-04T13:43:44.396Z,70.24
2018-12-04T13:46:13.770Z,69.73
2018-12-04T13:48:43.171Z,69.52
2018-12-04T13:51:12.530Z,69.47
2018-12-04T13:53:42.041Z,69.96
2018-12-04T13:56:12.165Z,69.66
2018-12-04T13:58:42.857Z,69.93
2018-12-04T14:01:12.221Z,70.12
2018-12-04T14:03:41.626Z,70.50
2018-12-04T14:06:11.132Z,70.92
2018-12-04T14:08:40.523Z,70.70
2018-12-04T14:11:10.016Z,70.79
2018-12-04T14:13:39.450Z,71.02
2018-12-04T14:16:09.522Z,71.02
2018-12-04T14:18:39.744Z,70.83
2018-12-04T14:21:09.338Z,71.29
2018-12-04T14:23:39.144Z,71.50
2018-12-04T14:26:08.892Z,71.97
2018-12-04T14:28:38.571Z,72.48
2018-12-04T14:31:08.266Z,72.46
2018-12-04T14:33:39.440Z,72.63
2018-12-04T14:36:09.236Z,72.88
2018-12-04T14:38:39.061Z,73.08
2018-12-04T14:41:08.689Z,73.29
2018-12-04T14:43:38.412Z,73.39
2018-12-04T14:46:08.180Z,73.55
2018-12-04T14:48:37.695Z,74.00
2018-12-04T14:51:08.713Z,73.79
2018-12-04T14:53:38.530Z,74.05
2018-12-04T14:56:08.140Z,74.06
2018-12-04T14:58:37.773Z,74.31
2018-12-04T15:01:07.466Z,74.54
2018-12-04T15:03:46.024Z,74.71
2018-12-04T15:06:16.102Z,75.02
2018-12-04T15:08:45.896Z,75.13
2018-12-04T15:11:15.479Z,74.97
2018-12-04T15:13:45.244Z,75.54
2018-12-04T15:16:14.943Z,75.66
2018-12-04T15:18:44.490Z,75.97
2018-12-04T15:21:14.881Z,76.03
2018-12-04T15:23:44.588Z,76.20
2018-12-04T15:26:14.316Z,76.59
2018-12-04T15:28:43.988Z,76.42
2018-12-04T15:31:13.925Z,76.94
2018-12-04T15:33:43.738Z,77.22
2018-12-04T15:36:13.246Z,77.29
2018-12-04T15:38:42.786Z,77.35
2018-12-04T15:41:12.643Z,77.46
2018-12-04T15:43:42.235Z,78.03
2018-12-04T15:46:11.640Z,78.02
2018-12-04T15:48:40.977Z,77.82
2018-12-04T15:51:10.566Z,78.18
2018-12-04T15:53:40.014Z,78.60
2018-12-04T15:56:09.475Z,78.41
2018-12-04T15:58:38.813Z,78.82
2018-12-04T16:03:55.717Z,79.23
2018-12-04T16:06:25.162Z,79.10
2018-12-04T16:08:54.515Z,79.50
2018-12-04T16:11:23.876Z,79.87
2018-12-04T16:13:53.285Z,79.63
2018-12-04T16:16:22.735Z,79.59
2018-12-04T16:18:55.027Z,79.34
2018-12-04T16:21:25.786Z,80.11
2018-12-04T16:23:55.289Z,79.71
2018-12-04T16:26:24.691Z,79.66
2018-12-04T16:28:54.070Z,79.99
2018-12-04T16:31:23.422Z,80.20
2018-12-04T16:33:52.834Z,80.47
2018-12-04T16:36:52.880Z,80.40
2018-12-04T16:39:22.442Z,80.47
2018-12-04T16:41:53.399Z,80.58
2018-12-04T16:44:23.141Z,80.62
2018-12-04T16:46:57.412Z,80.96
2018-12-04T16:49:26.962Z,80.83
2018-12-04T16:51:56.675Z,80.51
2018-12-04T16:54:26.232Z,80.56
2018-12-04T16:56:56.879Z,81.23
2018-12-04T16:59:26.476Z,80.76
2018-12-04T17:01:56.181Z,81.13
2018-12-04T17:04:26.176Z,80.88
2018-12-04T17:06:55.813Z,81.84
2018-12-04T17:09:25.351Z,81.16
2018-12-04T17:11:55.251Z,81.49
2018-12-04T17:14:24.841Z,81.28
2018-12-04T17:16:54.516Z,81.56
2018-12-04T17:19:24.209Z,81.70
2018-12-04T17:21:53.872Z,81.38
2018-12-04T17:24:23.560Z,81.55
2018-12-04T17:26:53.350Z,81.65
2018-12-04T17:29:23.083Z,81.91
2018-12-04T17:31:52.826Z,81.38
2018-12-04T17:34:22.903Z,81.79
2018-12-04T17:36:52.331Z,81.60
2018-12-04T17:39:21.856Z,81.80
2018-12-04T17:41:51.233Z,81.69
2018-12-04T17:44:21.307Z,82.19
2018-12-04T17:46:50.766Z,81.72
2018-12-04T17:49:20.156Z,82.05
2018-12-04T17:51:49.525Z,82.22
2018-12-04T17:54:19.077Z,82.17
2018-12-04T17:56:48.442Z,82.16
2018-12-04T17:59:17.800Z,82.48
2018-12-04T18:01:47.146Z,82.17
2018-12-04T18:04:16.475Z,81.97
2018-12-04T18:06:45.827Z,82.39
2018-12-04T18:09:16.372Z,82.42
2018-12-04T18:11:45.709Z,82.61
2018-12-04T18:14:16.292Z,82.63
2018-12-04T18:16:46.166Z,82.48
2018-12-04T18:19:15.836Z,82.55
2018-12-04T18:21:45.478Z,82.98
2018-12-04T18:24:16.454Z,83.04
2018-12-04T18:26:46.110Z,82.82
2018-12-04T18:29:15.760Z,82.83
2018-12-04T18:31:45.323Z,82.75
2018-12-04T18:34:15.056Z,83.05
2018-12-04T18:36:44.666Z,82.83
2018-12-04T18:39:14.389Z,82.64
2018-12-04T18:41:44.270Z,83.23
2018-12-04T18:44:14.387Z,82.95
2018-12-04T18:46:43.903Z,82.77
2018-12-04T18:49:13.501Z,83.04
2018-12-04T18:51:43.859Z,83.27
2018-12-04T18:54:14.155Z,83.43
2018-12-04T18:56:43.796Z,82.82
2018-12-04T18:59:13.342Z,83.40
2018-12-04T19:01:43.191Z,82.96
2018-12-04T19:04:12.899Z,83.12
2018-12-04T19:06:42.687Z,83.30
2018-12-04T19:09:12.508Z,83.30
2018-12-04T19:11:42.195Z,83.16
2018-12-04T19:14:11.929Z,83.21
2018-12-04T19:16:41.514Z,83.38
2018-12-04T19:21:36.154Z,83.41
2018-12-04T19:24:06.870Z,83.20
2018-12-04T19:26:36.751Z,83.92
2018-12-04T19:29:06.390Z,83.37
2018-12-04T19:31:36.215Z,83.23
2018-12-04T19:34:06.646Z,83.55
2018-12-04T19:36:36.141Z,83.67
2018-12-04T19:39:10.174Z,83.77
2018-12-04T19:41:40.464Z,83.08
2018-12-04T19:44:10.411Z,83.21
2018-12-04T19:46:40.000Z,83.77
2018-12-04T19:49:12.809Z,83.68
2018-12-04T19:51:42.290Z,83.53
2018-12-04T19:54:11.826Z,83.81
2018-12-04T19:56:41.591Z,83.99
2018-12-04T19:59:11.348Z,83.47
2018-12-04T20:01:40.900Z,83.00
2018-12-04T20:04:10.567Z,83.88
2018-12-04T20:06:40.561Z,83.87
2018-12-04T20:09:11.118Z,84.07
2018-12-04T20:11:40.812Z,83.67
2018-12-04T20:14:10.454Z,83.46
2018-12-04T20:16:40.107Z,83.55
2018-12-04T20:19:09.788Z,83.70
2018-12-04T20:21:39.468Z,84.05
2018-12-04T20:26:50.337Z,83.47
2018-12-04T20:29:20.158Z,83.93
2018-12-04T20:31:51.648Z,84.16
2018-12-04T20:34:22.293Z,83.66
2018-12-04T20:36:52.408Z,83.77
2018-12-04T20:39:23.034Z,83.93
2018-12-04T20:41:52.995Z,84.02
2018-12-04T20:44:22.830Z,83.58
2018-12-04T20:46:54.834Z,83.60
2018-12-04T20:52:05.808Z,84.13
2018-12-04T20:54:35.623Z,83.82
2018-12-04T20:57:06.598Z,84.22
2018-12-04T20:59:36.289Z,83.92
2018-12-04T21:02:07.284Z,84.14
2018-12-04T21:04:40.021Z,84.09
2018-12-04T21:07:10.827Z,84.21
2018-12-04T21:09:41.545Z,84.23
2018-12-04T21:12:12.494Z,84.08
2018-12-04T21:14:42.417Z,83.70
2018-12-04T21:17:12.222Z,84.12
2018-12-04T21:19:41.901Z,83.76
2018-12-04T21:22:13.612Z,84.21
2018-12-04T21:24:43.352Z,84.07
2018-12-04T21:29:25.344Z,84.23
2018-12-04T21:32:00.238Z,83.73
2018-12-04T21:34:36.054Z,84.40
2018-12-04T21:37:12.392Z,83.74
2018-12-04T21:39:49.098Z,84.11
2018-12-04T21:42:24.075Z,84.54
2018-12-04T21:44:59.035Z,84.38
2018-12-04T21:47:33.795Z,84.33
2018-12-04T21:52:43.087Z,84.37
2018-12-04T21:55:12.992Z,84.05
2018-12-04T21:57:43.563Z,84.16
2018-12-04T22:00:13.740Z,84.53
2018-12-04T22:02:43.463Z,84.36
2018-12-04T22:05:13.793Z,84.47
2018-12-04T22:07:43.508Z,83.76
2018-12-04T22:10:14.013Z,84.14
2018-12-04T22:12:44.390Z,84.53
2018-12-04T22:15:14.175Z,84.29
2018-12-04T22:17:45.205Z,84.34
2018-12-04T22:20:14.840Z,83.97
2018-12-04T22:22:45.826Z,83.94
2018-12-04T22:25:16.636Z,84.67
2018-12-04T22:27:46.575Z,84.38
2018-12-04T22:30:16.107Z,84.52
2018-12-04T22:32:46.178Z,84.20
2018-12-04T22:35:15.717Z,84.42
2018-12-04T22:37:45.086Z,84.08
2018-12-04T22:42:55.070Z,84.78
2018-12-04T22:45:26.125Z,84.70
2018-12-04T22:47:56.576Z,84.67
2018-12-04T22:50:26.067Z,84.64
2018-12-04T22:52:55.694Z,84.82
2018-12-04T22:55:25.110Z,84.93
2018-12-04T22:57:54.489Z,84.89
2018-12-04T23:00:36.264Z,84.85
2018-12-04T23:03:06.576Z,85.08
2018-12-04T23:05:36.119Z,84.81
2018-12-04T23:08:06.162Z,84.30
2018-12-04T23:10:35.515Z,84.43
2018-12-04T23:13:06.384Z,84.80
2018-12-04T23:15:35.824Z,84.89
2018-12-04T23:18:07.741Z,84.62
2018-12-04T23:20:37.125Z,84.77
2018-12-04T23:23:06.508Z,84.75
2018-12-04T23:25:36.037Z,84.64
2018-12-04T23:28:06.091Z,84.44
2018-12-04T23:30:39.601Z,84.68
2018-12-04T23:33:09.082Z,84.12
2018-12-04T23:35:38.388Z,84.42
2018-12-04T23:38:08.914Z,83.89
2018-12-04T23:40:38.372Z,83.80
2018-12-04T23:43:07.736Z,84.00
2018-12-04T23:45:37.357Z,84.18
2018-12-04T23:48:06.987Z,84.36
2018-12-04T23:50:36.432Z,83.50
2018-12-04T23:53:06.879Z,84.37
2018-12-04T23:55:36.834Z,83.74
2018-12-04T23:58:06.349Z,84.17
